createdAt,value
2022-09-05T00:04:10.549Z,19.68
2022-09-05T00:09:53.148Z,19.61
2022-09-05T00:15:18.891Z,19.63
2022-09-05T00:24:33.058Z,19.55
2022-09-05T00:26:09.783Z,19.59
2022-09-05T00:31:53.729Z,19.58
2022-09-05T00:36:56.019Z,19.64
2022-09-05T00:42:05.370Z,19.61
2022-09-05T00:47:15.117Z,19.63
2022-09-05T00:52:26.137Z,19.56
2022-09-05T00:57:49.294Z,19.50
2022-09-05T01:03:09.820Z,19.50
2022-09-05T01:08:32.028Z,19.51
2022-09-05T01:13:46.887Z,19.47
2022-09-05T01:19:01.470Z,19.39
2022-09-05T01:24:30.613Z,19.32
2022-09-05T01:29:44.793Z,19.28
2022-09-05T01:35:01.654Z,19.12
2022-09-05T01:40:20.664Z,19.06
2022-09-05T01:45:37.581Z,19.05
2022-09-05T01:50:49.497Z,19.04
2022-09-05T01:56:24.041Z,18.95
2022-09-05T02:01:37.314Z,19.00
2022-09-05T02:06:47.696Z,18.95
2022-09-05T02:11:57.387Z,18.91
2022-09-05T02:17:44.790Z,18.88
2022-09-05T02:22:44.023Z,18.88
2022-09-05T02:28:03.918Z,18.82
2022-09-05T02:33:21.197Z,18.70
2022-09-05T02:45:03.414Z,18.62
2022-09-05T02:45:21.694Z,18.58
2022-09-05T02:51:47.410Z,18.62
2022-09-05T02:57:41.150Z,18.63
2022-09-05T03:00:56.115Z,18.63
2022-09-05T03:06:06.932Z,18.63
2022-09-05T03:11:50.296Z,18.64
2022-09-05T03:17:34.609Z,18.61
2022-09-05T03:23:08.628Z,18.80
2022-09-05T03:28:50.944Z,18.83
2022-09-05T03:34:39.846Z,18.89
2022-09-05T03:40:16.930Z,18.87
2022-09-05T03:45:36.981Z,18.82
2022-09-05T03:56:27.609Z,18.78
2022-09-05T03:57:15.450Z,18.79
2022-09-05T04:06:58.359Z,18.78
2022-09-05T04:08:23.961Z,18.75
2022-09-05T04:13:04.044Z,18.65
2022-09-05T04:18:25.765Z,18.57
2022-09-05T04:23:48.017Z,18.47
2022-09-05T04:29:02.726Z,18.42
2022-09-05T04:34:21.022Z,18.33
2022-09-05T04:39:28.604Z,18.29
2022-09-05T04:44:38.625Z,18.30
2022-09-05T04:49:44.443Z,18.25
2022-09-05T04:54:53.359Z,18.23
2022-09-05T05:04:23.749Z,18.27
2022-09-05T05:06:16.894Z,18.31
2022-09-05T05:17:54.982Z,18.30
2022-09-05T05:18:06.546Z,18.36
2022-09-05T05:22:08.143Z,18.49
2022-09-05T05:27:20.055Z,18.64
2022-09-05T05:32:45.003Z,18.82
2022-09-05T05:37:54.756Z,18.90
2022-09-05T05:43:16.030Z,19.10
2022-09-05T05:54:03.334Z,19.49
2022-09-05T06:06:14.977Z,19.41
2022-09-05T06:14:59.033Z,19.59
2022-09-05T06:18:01.899Z,19.60
2022-09-05T06:23:40.314Z,19.65
2022-09-05T06:28:57.375Z,19.74
2022-09-05T06:34:33.556Z,19.86
2022-09-05T06:40:01.251Z,19.99
2022-09-05T06:45:28.423Z,20.10
2022-09-05T06:51:09.065Z,20.21
2022-09-05T06:56:30.924Z,20.27
2022-09-05T07:01:59.822Z,20.70
2022-09-05T07:07:10.173Z,21.02
2022-09-05T07:12:18.551Z,21.53
2022-09-05T07:17:44.428Z,21.93
2022-09-05T07:23:38.304Z,22.11
2022-09-05T07:28:30.502Z,22.29
2022-09-05T07:33:39.667Z,22.57
2022-09-05T07:39:02.433Z,22.76
2022-09-05T07:44:22.203Z,22.63
2022-09-05T07:49:31.155Z,22.95
2022-09-05T07:57:01.327Z,23.64
2022-09-05T08:00:25.614Z,23.86
2022-09-05T08:05:40.308Z,23.94
2022-09-05T08:11:23.792Z,24.29
2022-09-05T08:16:16.860Z,25.12
2022-09-05T08:21:27.255Z,25.37
2022-09-05T08:26:38.739Z,25.76
2022-09-05T08:31:46.523Z,26.69
2022-09-05T08:36:52.998Z,27.16
2022-09-05T08:42:25.162Z,27.06
2022-09-05T08:47:45.589Z,26.70
2022-09-05T08:53:28.161Z,26.69
2022-09-05T08:59:27.531Z,27.35
2022-09-05T09:04:39.969Z,27.86
2022-09-05T09:09:59.458Z,27.22
2022-09-05T09:15:06.417Z,27.51
2022-09-05T09:20:22.599Z,28.18
2022-09-05T09:25:33.958Z,28.66
2022-09-05T09:30:41.448Z,29.05
2022-09-05T09:35:53.156Z,29.49
2022-09-05T09:41:23.327Z,29.48
2022-09-05T09:46:39.393Z,29.95
2022-09-05T09:51:55.335Z,30.33
2022-09-05T09:57:21.537Z,30.15
2022-09-05T10:06:00.311Z,30.84
2022-09-05T10:10:52.714Z,30.60
2022-09-05T10:14:50.046Z,30.95
2022-09-05T10:20:28.714Z,31.40
2022-09-05T10:26:01.558Z,31.49
2022-09-05T10:32:31.349Z,30.86
2022-09-05T10:36:41.499Z,31.35
2022-09-05T10:41:49.207Z,32.00
2022-09-05T10:47:04.725Z,32.39
2022-09-05T10:52:18.523Z,31.75
2022-09-05T10:57:34.997Z,32.93
2022-09-05T11:02:47.247Z,34.51
2022-09-05T11:08:01.800Z,34.53
2022-09-05T11:13:16.329Z,34.38
2022-09-05T11:18:55.129Z,34.17
2022-09-05T11:24:00.958Z,33.48
2022-09-05T11:29:08.924Z,32.68
2022-09-05T11:39:46.114Z,32.71
2022-09-05T11:40:41.911Z,34.57
2022-09-05T11:46:15.454Z,35.99
2022-09-05T11:51:58.905Z,33.67
2022-09-05T11:57:33.786Z,34.76
2022-09-05T12:02:55.573Z,35.55
2022-09-05T12:08:09.155Z,35.80
2022-09-05T12:13:33.735Z,35.07
2022-09-05T12:18:44.440Z,34.34
2022-09-05T12:24:58.891Z,34.51
2022-09-05T12:29:35.598Z,34.97
2022-09-05T12:36:03.745Z,35.27
2022-09-05T12:41:38.837Z,37.79
2022-09-05T12:45:47.749Z,38.33
2022-09-05T12:50:58.614Z,38.71
2022-09-05T12:57:29.171Z,38.53
2022-09-05T13:03:13.538Z,39.21
2022-09-05T13:07:01.048Z,38.77
2022-09-05T13:14:47.560Z,38.47
2022-09-05T13:17:44.328Z,38.80
2022-09-05T13:22:50.512Z,38.30
2022-09-05T13:27:59.264Z,36.72
2022-09-05T13:38:12.827Z,36.10
2022-09-05T13:38:49.467Z,34.50
2022-09-05T13:44:00.377Z,32.68
2022-09-05T13:49:26.652Z,32.88
2022-09-05T13:54:37.666Z,33.64
2022-09-05T13:59:44.661Z,31.85
2022-09-05T14:05:29.083Z,31.52
2022-09-05T14:11:07.909Z,33.92
2022-09-05T14:16:19.535Z,32.93
2022-09-05T14:21:24.995Z,32.00
2022-09-05T14:26:31.536Z,31.64
2022-09-05T14:37:35.955Z,31.44
2022-09-05T14:37:44.166Z,30.94
2022-09-05T14:43:17.447Z,31.09
2022-09-05T14:48:53.556Z,31.13
2022-09-05T14:54:01.424Z,32.07
2022-09-05T15:02:43.971Z,33.14
2022-09-05T15:04:46.884Z,32.93
2022-09-05T15:12:17.766Z,32.07
2022-09-05T15:15:35.915Z,31.35
2022-09-05T15:20:42.160Z,30.46
2022-09-05T15:25:48.144Z,30.03
2022-09-05T15:31:04.449Z,29.92
2022-09-05T15:36:13.395Z,29.84
2022-09-05T15:41:20.579Z,29.90
2022-09-05T15:46:29.572Z,29.96
2022-09-05T15:51:48.051Z,29.87
2022-09-05T15:56:54.276Z,29.76
2022-09-05T16:02:00.334Z,29.66
2022-09-05T16:10:36.335Z,29.82
2022-09-05T16:12:33.391Z,31.43
2022-09-05T16:23:15.774Z,32.41
2022-09-05T16:23:39.414Z,32.30
2022-09-05T16:28:39.165Z,32.25
2022-09-05T16:33:43.816Z,32.36
2022-09-05T16:38:52.809Z,32.24
2022-09-05T16:43:59.820Z,32.02
2022-09-05T16:49:12.082Z,31.42
2022-09-05T16:54:25.643Z,30.94
2022-09-05T16:59:31.311Z,30.25
2022-09-05T17:05:03.152Z,29.24
2022-09-05T17:10:12.076Z,28.44
2022-09-05T17:15:17.540Z,28.08
2022-09-05T17:20:23.640Z,27.82
2022-09-05T17:29:35.290Z,27.57
2022-09-05T17:36:41.385Z,27.35
2022-09-05T17:42:12.858Z,26.96
2022-09-05T17:47:35.354Z,26.80
2022-09-05T17:53:26.886Z,26.52
2022-09-05T17:58:49.613Z,26.54
2022-09-05T18:04:08.521Z,26.46
2022-09-05T18:10:12.611Z,26.44
2022-09-05T18:15:22.537Z,26.27
2022-09-05T18:20:33.527Z,26.10
2022-09-05T18:25:48.349Z,25.93
2022-09-05T18:30:52.832Z,25.82
2022-09-05T18:36:35.876Z,25.71
2022-09-05T18:41:41.801Z,25.63
2022-09-05T18:46:49.899Z,25.43
2022-09-05T18:52:00.932Z,25.29
2022-09-05T18:57:26.832Z,25.18
2022-09-05T19:02:50.031Z,24.98
2022-09-05T19:08:04.715Z,24.79
2022-09-05T19:13:15.569Z,24.60
2022-09-05T19:18:26.028Z,24.37
2022-09-05T19:23:33.786Z,24.30
2022-09-05T19:36:59.817Z,24.19
2022-09-05T19:37:12.706Z,23.97
2022-09-05T19:42:01.793Z,23.97
2022-09-05T19:47:38.168Z,23.91
2022-09-05T19:50:29.848Z,23.72
2022-09-05T19:55:37.390Z,23.77
2022-09-05T20:00:42.153Z,23.68
2022-09-05T20:05:51.606Z,23.82
2022-09-05T20:11:02.757Z,23.77
2022-09-05T20:16:05.916Z,23.73
2022-09-05T20:21:13.108Z,23.74
2022-09-05T20:26:19.217Z,23.57
2022-09-05T20:31:27.628Z,23.65
2022-09-05T20:43:10.766Z,23.62
2022-09-05T20:43:30.782Z,23.51
2022-09-05T20:48:43.535Z,23.47
2022-09-05T20:54:27.975Z,23.08
2022-09-05T20:58:31.257Z,23.18
2022-09-05T21:03:40.930Z,23.04
2022-09-05T21:08:50.942Z,23.07
2022-09-05T21:14:03.380Z,22.69
2022-09-05T21:19:06.100Z,22.80
2022-09-05T21:24:16.019Z,22.78
2022-09-05T21:29:32.253Z,22.61
2022-09-05T21:34:45.098Z,22.59
2022-09-05T21:39:59.793Z,22.58
2022-09-05T21:47:43.541Z,22.57
2022-09-05T21:50:31.385Z,22.48
2022-09-05T21:59:32.838Z,22.28
2022-09-05T22:00:59.494Z,22.40
2022-09-05T22:06:04.207Z,22.27
2022-09-05T22:11:14.445Z,22.12
2022-09-05T22:16:17.710Z,22.09
2022-09-05T22:21:32.818Z,21.82
2022-09-05T22:27:11.425Z,21.81
2022-09-05T22:32:08.789Z,21.84
2022-09-05T22:37:14.010Z,21.77
2022-09-05T22:42:18.334Z,21.84
2022-09-05T22:47:21.273Z,21.73
2022-09-05T22:52:24.211Z,21.71
2022-09-05T22:57:28.508Z,21.64
2022-09-05T23:02:31.421Z,21.73
2022-09-05T23:07:34.579Z,21.63
2022-09-05T23:12:38.960Z,21.58
2022-09-05T23:17:41.830Z,21.47
2022-09-05T23:22:44.693Z,21.26
2022-09-05T23:27:49.433Z,21.48
2022-09-05T23:32:53.137Z,21.44
2022-09-05T23:37:56.189Z,21.41
2022-09-05T23:43:01.148Z,21.44
2022-09-05T23:48:04.378Z,21.45
2022-09-05T23:53:07.230Z,21.44
2022-09-05T23:58:12.584Z,21.49
